Time;durP1;ratioP1;P1;durP2;ratioP2;P2;SDS_P1;SDS_P2;PMS_P1;PMS_P2;Temp;Humidity;BMP_temperature;BMP_pressure;BME280_temperature;BME280_humidity;BME280_pressure;Samples;Min_cycle;Max_cycle;Signal;HPM_P1;HPM_P2
2023/01/07 00:01:41;;;;;;;59.13;32.15;;;8.80;99.90;;;;;;5034333;28;20046;-32
2023/01/07 00:04:10;;;;;;;58.97;31.48;;;8.90;99.90;;;;;;5033462;28;20152;-33
2023/01/07 00:06:38;;;;;;;57.42;32.03;;;8.90;99.90;;;;;;5033494;28;20053;-33
2023/01/07 00:09:06;;;;;;;65.95;33.30;;;8.90;99.90;;;;;;5034253;28;20120;-34
2023/01/07 00:11:37;;;;;;;74.13;35.33;;;9.00;99.90;;;;;;5033407;28;20128;-33
2023/01/07 00:14:04;;;;;;;85.15;40.92;;;9.10;99.90;;;;;;5033362;28;20144;-33
2023/01/07 00:16:32;;;;;;;83.45;40.03;;;9.10;99.90;;;;;;5015719;28;20045;-34
2023/01/07 00:19:00;;;;;;;85.97;36.33;;;9.10;99.90;;;;;;5016153;28;20099;-33
2023/01/07 00:21:27;;;;;;;73.78;34.95;;;9.20;99.90;;;;;;5015876;28;20092;-36
2023/01/07 00:23:55;;;;;;;92.47;41.10;;;9.20;99.90;;;;;;5015529;28;20049;-34
2023/01/07 00:26:22;;;;;;;89.93;38.42;;;9.30;99.90;;;;;;5015843;28;20563;-34
2023/01/07 00:28:50;;;;;;;83.05;38.47;;;9.20;99.90;;;;;;5030482;28;20130;-34
2023/01/07 00:31:19;;;;;;;94.78;41.30;;;9.30;99.90;;;;;;5032563;28;20058;-34
2023/01/07 00:34:27;;;;;;;81.25;37.60;;;9.40;99.90;;;;;;5033472;28;20053;-33
2023/01/07 00:36:43;;;;;;;93.18;41.08;;;9.40;99.90;;;;;;5025627;28;20050;-33
2023/01/07 00:39:20;;;;;;;88.10;41.03;;;9.50;99.90;;;;;;5015692;28;20095;-34
2023/01/07 00:44:31;;;;;;;91.85;37.95;;;9.50;99.90;;;;;;5037734;28;20447;-34
2023/01/07 00:46:58;;;;;;;98.43;41.25;;;9.60;99.90;;;;;;5035943;28;20077;-35
2023/01/07 00:49:24;;;;;;;85.97;35.97;;;9.60;99.90;;;;;;5036848;28;20100;-34
2023/01/07 00:51:50;;;;;;;89.03;37.38;;;9.60;99.90;;;;;;5036767;28;20372;-38
2023/01/07 00:54:16;;;;;;;85.60;36.85;;;9.70;99.90;;;;;;5036699;28;20100;-39
2023/01/07 00:56:42;;;;;;;89.97;36.65;;;9.70;99.90;;;;;;5036657;28;20045;-38
2023/01/07 00:59:07;;;;;;;83.80;35.78;;;9.70;99.90;;;;;;5036536;28;20369;-40
2023/01/07 01:01:33;;;;;;;81.30;34.95;;;9.70;99.90;;;;;;5019161;28;20045;-40
2023/01/07 01:03:59;;;;;;;97.05;36.10;;;9.80;99.90;;;;;;5037328;28;20045;-41
2023/01/07 01:06:25;;;;;;;78.45;34.97;;;9.80;99.90;;;;;;5036441;28;20111;-41
2023/01/07 01:08:51;;;;;;;80.88;34.92;;;9.80;99.90;;;;;;5037217;28;20053;-42
2023/01/07 01:11:17;;;;;;;73.05;31.90;;;9.90;99.90;;;;;;5036429;28;20396;-41
2023/01/07 01:13:44;;;;;;;71.88;31.55;;;9.90;99.90;;;;;;5036881;28;20137;-41
2023/01/07 01:16:13;;;;;;;81.40;33.28;;;9.80;99.90;;;;;;5035373;28;20076;-42
2023/01/07 01:18:39;;;;;;;81.53;33.08;;;9.90;99.90;;;;;;5036146;28;20083;-42
2023/01/07 01:21:06;;;;;;;70.88;30.98;;;9.90;99.90;;;;;;5035095;28;20140;-41
2023/01/07 01:23:32;;;;;;;57.85;28.73;;;9.90;99.90;;;;;;5036110;28;20132;-41
2023/01/07 01:26:07;;;;;;;67.00;31.38;;;10.00;99.90;;;;;;5035564;28;20045;-41
2023/01/07 01:28:34;;;;;;;64.95;30.48;;;10.00;99.90;;;;;;5036361;28;20096;-41
2023/01/07 01:31:00;;;;;;;70.35;30.83;;;10.00;99.90;;;;;;5036004;28;20048;-42
2023/01/07 01:33:26;;;;;;;62.25;30.20;;;10.00;99.90;;;;;;5036235;28;20045;-42
2023/01/07 01:35:51;;;;;;;67.65;30.75;;;10.00;99.90;;;;;;5018290;28;20380;-42
2023/01/07 01:38:17;;;;;;;60.33;28.17;;;10.10;99.90;;;;;;5036421;28;20041;-42
2023/01/07 01:40:43;;;;;;;60.72;29.10;;;10.10;99.90;;;;;;5018184;28;20064;-42
2023/01/07 01:43:36;;;;;;;57.63;28.35;;;10.10;99.90;;;;;;5018180;28;20052;-42
2023/01/07 01:46:29;;;;;;;57.47;28.88;;;10.20;99.90;;;;;;5033116;28;20064;-42
2023/01/07 01:49:19;;;;;;;53.57;28.00;;;10.20;99.90;;;;;;5036344;28;20092;-42
2023/01/07 01:51:51;;;;;;;53.75;28.75;;;10.20;99.90;;;;;;5035643;28;20050;-42
2023/01/07 01:54:18;;;;;;;55.40;30.08;;;10.20;99.90;;;;;;5017671;28;20049;-42
2023/01/07 01:56:48;;;;;;;50.55;28.40;;;10.20;99.90;;;;;;5036381;28;20076;-42
2023/01/07 01:59:19;;;;;;;47.50;25.27;;;10.30;99.90;;;;;;5035470;28;20550;-42
2023/01/07 02:01:45;;;;;;;47.95;28.98;;;10.30;99.90;;;;;;5035518;28;20147;-43
2023/01/07 02:04:15;;;;;;;41.80;27.55;;;10.30;99.90;;;;;;5001621;28;20049;-42
2023/01/07 02:06:56;;;;;;;40.50;26.67;;;10.30;99.90;;;;;;5017653;28;20503;-42
2023/01/07 02:09:21;;;;;;;45.63;27.20;;;10.40;99.90;;;;;;5035327;28;20480;-42
2023/01/07 02:11:47;;;;;;;40.10;28.60;;;10.40;99.90;;;;;;5035255;28;20049;-42
2023/01/07 02:14:36;;;;;;;43.97;29.58;;;10.40;99.90;;;;;;5035491;28;20049;-42
2023/01/07 02:17:28;;;;;;;45.45;28.65;;;10.40;99.90;;;;;;5035548;28;20491;-41
2023/01/07 02:20:12;;;;;;;44.47;29.25;;;10.40;99.90;;;;;;5026191;28;20115;-41
2023/01/07 02:23:05;;;;;;;44.13;30.83;;;10.40;99.90;;;;;;5034650;28;20045;-42
2023/01/07 02:26:00;;;;;;;41.28;29.65;;;10.40;99.90;;;;;;5035589;28;20053;-41
2023/01/07 02:28:28;;;;;;;47.72;31.42;;;10.40;99.90;;;;;;5035416;28;20057;-41
2023/01/07 02:31:29;;;;;;;42.85;31.08;;;10.40;99.90;;;;;;5035153;28;20049;-41
2023/01/07 02:34:14;;;;;;;43.13;30.23;;;10.40;99.90;;;;;;5034845;28;20053;-41
2023/01/07 02:36:51;;;;;;;48.88;31.45;;;10.40;99.90;;;;;;5034789;28;20180;-41
2023/01/07 02:39:22;;;;;;;46.88;31.30;;;10.40;99.90;;;;;;5035219;28;20046;-41
2023/01/07 02:41:56;;;;;;;41.80;29.50;;;10.40;99.90;;;;;;5034689;28;20045;-42
2023/01/07 02:44:29;;;;;;;39.75;27.60;;;10.40;99.90;;;;;;5018100;28;20145;-41
2023/01/07 02:47:15;;;;;;;;;;;10.40;99.90;;;;;;5018493;28;20136;-41
2023/01/07 02:49:41;;;;;;;37.70;27.42;;;10.40;99.90;;;;;;5033600;28;20020;-41
2023/01/07 02:52:28;;;;;;;39.30;28.63;;;10.40;99.90;;;;;;5034509;28;20077;-41
2023/01/07 02:55:02;;;;;;;40.60;29.55;;;10.40;99.90;;;;;;5034436;28;20045;-41
2023/01/07 02:57:30;;;;;;;35.92;27.52;;;10.40;99.90;;;;;;5034972;28;20091;-41
2023/01/07 03:00:37;;;;;;;37.65;27.90;;;10.50;99.90;;;;;;5034275;28;20037;-42
2023/01/07 03:03:36;;;;;;;36.88;27.88;;;10.50;99.90;;;;;;5034366;28;20041;-41
2023/01/07 03:06:34;;;;;;;31.50;25.67;;;10.40;99.90;;;;;;5033510;28;20045;-41
2023/01/07 03:09:42;;;;;;;35.58;28.38;;;10.50;99.90;;;;;;5033415;28;20060;-41
2023/01/07 03:12:20;;;;;;;35.05;26.13;;;10.50;99.90;;;;;;5034745;28;20049;-41
2023/01/07 03:15:10;;;;;;;36.22;27.60;;;10.50;99.90;;;;;;5034076;28;20045;-41
2023/01/07 03:17:52;;;;;;;36.65;26.83;;;10.50;99.90;;;;;;5016638;28;20049;-42
2023/01/07 03:20:21;;;;;;;33.17;27.77;;;10.40;99.90;;;;;;5033952;28;20041;-42
2023/01/07 03:22:47;;;;;;;33.63;25.13;;;10.40;99.90;;;;;;5033860;28;20050;-41
2023/01/07 03:25:15;;;;;;;32.92;27.33;;;10.40;99.90;;;;;;5017066;28;20411;-42
2023/01/07 03:27:44;;;;;;;35.03;26.60;;;10.50;99.90;;;;;;5033678;28;20057;-42
2023/01/07 03:30:14;;;;;;;34.67;27.77;;;10.40;99.90;;;;;;5033781;28;20472;-42
2023/01/07 03:32:59;;;;;;;35.80;28.60;;;10.50;99.90;;;;;;5034340;28;20049;-42
2023/01/07 03:35:27;;;;;;;35.70;28.42;;;10.40;99.90;;;;;;5034144;28;20152;-42
2023/01/07 03:37:54;;;;;;;37.55;29.38;;;10.40;99.90;;;;;;5034246;28;20484;-41
2023/01/07 03:40:20;;;;;;;38.25;30.55;;;10.40;99.90;;;;;;5033642;28;20132;-42
2023/01/07 03:42:47;;;;;;;35.05;29.85;;;10.40;99.90;;;;;;5017103;28;20056;-41
2023/01/07 03:45:25;;;;;;;36.53;30.10;;;10.40;99.90;;;;;;5033400;28;20513;-42
2023/01/07 03:47:54;;;;;;;34.47;30.25;;;10.40;99.90;;;;;;5033648;28;20115;-41
2023/01/07 03:50:20;;;;;;;32.55;28.15;;;10.50;99.90;;;;;;5033581;28;20037;-41
2023/01/07 03:52:50;;;;;;;36.85;28.70;;;10.50;99.90;;;;;;5034405;28;20052;-41
2023/01/07 03:55:16;;;;;;;33.45;28.67;;;10.50;99.90;;;;;;5033260;28;20128;-41
2023/01/07 03:57:42;;;;;;;31.45;27.80;;;10.50;99.90;;;;;;5016177;28;20132;-42
2023/01/07 04:00:10;;;;;;;34.65;29.65;;;10.50;99.90;;;;;;5015579;28;20120;-42
2023/01/07 04:02:35;;;;;;;32.72;27.75;;;10.50;99.90;;;;;;4999693;28;20385;-41
2023/01/07 04:05:01;;;;;;;28.40;25.25;;;10.50;99.90;;;;;;5016085;28;20052;-41
2023/01/07 04:07:27;;;;;;;34.50;29.08;;;10.50;99.90;;;;;;4999765;28;20037;-41
2023/01/07 04:09:52;;;;;;;30.33;26.95;;;10.50;99.90;;;;;;5033134;28;20148;-41
2023/01/07 04:12:18;;;;;;;29.67;26.10;;;10.40;99.90;;;;;;5016003;28;20049;-42
2023/01/07 04:14:44;;;;;;;34.65;26.60;;;10.40;99.90;;;;;;5033921;28;20081;-41
2023/01/07 04:17:10;;;;;;;30.42;25.13;;;10.40;99.90;;;;;;5035538;28;20380;-41
2023/01/07 04:19:37;;;;;;;31.25;25.58;;;10.40;99.90;;;;;;5037329;28;20484;-41
2023/01/07 04:22:09;;;;;;;29.27;25.27;;;10.50;99.90;;;;;;5020731;28;20102;-41
2023/01/07 04:24:34;;;;;;;29.58;25.20;;;10.40;99.90;;;;;;5037195;28;20140;-41
2023/01/07 04:27:00;;;;;;;26.70;23.10;;;10.50;99.90;;;;;;5019366;28;20513;-42
2023/01/07 04:29:26;;;;;;;28.52;24.38;;;10.50;99.90;;;;;;5037475;28;20041;-42
2023/01/07 04:31:52;;;;;;;31.48;22.90;;;10.40;99.90;;;;;;5037149;28;20389;-41
2023/01/07 04:34:18;;;;;;;26.10;23.30;;;10.40;99.90;;;;;;5037072;28;20042;-41
2023/01/07 04:36:44;;;;;;;26.42;23.65;;;10.40;99.90;;;;;;5037582;28;20053;-42
2023/01/07 04:39:11;;;;;;;26.80;22.45;;;10.40;99.90;;;;;;5019909;28;20045;-41
2023/01/07 04:41:37;;;;;;;26.65;22.88;;;10.40;99.90;;;;;;5037015;28;20049;-42
2023/01/07 04:44:03;;;;;;;26.08;21.80;;;10.40;99.90;;;;;;5036906;28;20468;-42
2023/01/07 04:46:29;;;;;;;24.30;21.60;;;10.40;99.90;;;;;;5036867;28;20049;-42
2023/01/07 04:48:54;;;;;;;28.27;22.65;;;10.40;99.90;;;;;;5019205;28;20439;-41
2023/01/07 04:51:20;;;;;;;27.52;22.27;;;10.30;99.90;;;;;;5019361;28;20045;-41
2023/01/07 04:53:47;;;;;;;25.38;22.35;;;10.40;99.90;;;;;;5019332;28;20103;-42
2023/01/07 04:56:13;;;;;;;29.45;22.70;;;10.30;99.90;;;;;;5036663;28;20049;-41
2023/01/07 04:58:38;;;;;;;25.23;21.38;;;10.30;99.90;;;;;;5037202;28;20102;-41
2023/01/07 05:01:05;;;;;;;23.58;21.08;;;10.30;99.90;;;;;;5036609;28;20419;-41
2023/01/07 05:03:33;;;;;;;23.48;20.98;;;10.30;99.90;;;;;;5019900;28;20046;-41
2023/01/07 05:05:59;;;;;;;22.95;20.30;;;10.20;99.90;;;;;;5036498;28;20045;-41
2023/01/07 05:08:25;;;;;;;32.85;21.92;;;10.20;99.90;;;;;;5036505;28;20102;-41
2023/01/07 05:10:51;;;;;;;30.70;22.08;;;10.20;99.90;;;;;;5036096;28;20120;-42
2023/01/07 05:13:19;;;;;;;23.13;20.63;;;10.20;99.90;;;;;;5036367;28;20101;-41
2023/01/07 05:15:46;;;;;;;25.45;21.92;;;10.20;99.90;;;;;;5036328;28;20076;-41
2023/01/07 05:18:12;;;;;;;25.27;21.85;;;10.20;99.90;;;;;;5036335;28;20045;-41
2023/01/07 05:20:38;;;;;;;29.17;22.42;;;10.10;99.90;;;;;;5036685;28;20053;-41
2023/01/07 05:23:04;;;;;;;26.73;20.55;;;10.20;99.90;;;;;;5036104;28;20079;-42
2023/01/07 05:25:31;;;;;;;26.13;20.63;;;10.20;99.90;;;;;;4986768;28;20045;-41
2023/01/07 05:27:57;;;;;;;23.80;18.80;;;10.10;99.90;;;;;;5023501;28;20056;-41
2023/01/07 05:30:23;;;;;;;25.48;22.33;;;10.20;99.90;;;;;;5036396;28;20419;-41
2023/01/07 05:32:48;;;;;;;26.73;20.73;;;10.20;99.90;;;;;;5036876;28;20047;-41
2023/01/07 05:35:14;;;;;;;25.65;21.55;;;10.20;99.90;;;;;;5035415;28;20479;-41
2023/01/07 05:37:40;;;;;;;25.13;21.13;;;10.20;99.90;;;;;;5035970;28;20045;-41
2023/01/07 05:40:06;;;;;;;20.30;18.15;;;10.30;99.90;;;;;;5035589;28;20479;-41
2023/01/07 05:42:32;;;;;;;24.27;17.92;;;10.30;99.90;;;;;;5001930;28;20492;-41
2023/01/07 05:44:57;;;;;;;21.60;18.25;;;10.30;99.90;;;;;;5035805;28;20046;-41
2023/01/07 05:47:23;;;;;;;22.25;17.92;;;10.40;99.90;;;;;;5034665;28;20387;-41
2023/01/07 05:49:49;;;;;;;20.35;17.17;;;10.40;99.90;;;;;;5034789;28;20426;-41
2023/01/07 05:52:14;;;;;;;24.17;17.83;;;10.40;99.90;;;;;;5035205;28;20053;-40
2023/01/07 05:54:40;;;;;;;19.05;17.10;;;10.40;99.90;;;;;;5035581;28;20053;-42
2023/01/07 05:57:06;;;;;;;20.33;16.52;;;10.40;99.90;;;;;;5035151;28;20048;-41
2023/01/07 05:59:33;;;;;;;19.02;16.55;;;10.40;99.90;;;;;;5036062;28;20046;-39
2023/01/07 06:02:00;;;;;;;21.52;16.02;;;10.30;99.90;;;;;;5036057;28;20053;-40
2023/01/07 06:04:26;;;;;;;20.35;16.20;;;10.30;99.90;;;;;;5036008;28;20056;-41
2023/01/07 06:06:51;;;;;;;19.40;16.58;;;10.30;99.90;;;;;;5034490;28;20049;-40
2023/01/07 06:09:17;;;;;;;22.38;16.38;;;10.30;99.90;;;;;;5036225;28;20052;-40
2023/01/07 06:11:43;;;;;;;21.13;17.10;;;10.20;99.90;;;;;;5034148;28;20488;-40
2023/01/07 06:14:09;;;;;;;19.90;16.17;;;10.20;99.90;;;;;;5034249;28;20574;-41
2023/01/07 06:16:34;;;;;;;19.15;15.82;;;10.10;99.90;;;;;;5035267;28;20481;-39
2023/01/07 06:19:00;;;;;;;22.50;15.85;;;10.10;99.90;;;;;;5035337;28;20041;-39
2023/01/07 06:21:26;;;;;;;18.23;15.60;;;10.10;99.90;;;;;;5034029;28;20475;-40
2023/01/07 06:23:51;;;;;;;20.00;15.25;;;10.10;99.90;;;;;;5000938;28;20407;-39
2023/01/07 06:26:17;;;;;;;18.67;15.35;;;10.00;99.90;;;;;;5035008;28;20095;-41
2023/01/07 06:28:43;;;;;;;21.15;16.48;;;10.00;99.90;;;;;;5035105;28;20053;-39
2023/01/07 06:31:09;;;;;;;20.52;16.10;;;9.90;99.90;;;;;;5017253;28;20049;-40
2023/01/07 06:33:36;;;;;;;20.92;15.50;;;9.90;99.90;;;;;;5034872;28;20046;-40
2023/01/07 06:36:03;;;;;;;19.50;15.95;;;9.80;99.90;;;;;;5017451;28;20054;-38
2023/01/07 06:38:29;;;;;;;20.10;15.82;;;9.70;99.90;;;;;;5034755;28;20498;-40
2023/01/07 06:40:57;;;;;;;21.92;15.93;;;9.70;99.90;;;;;;5034546;28;20045;-40
2023/01/07 06:43:23;;;;;;;19.42;15.77;;;9.60;99.90;;;;;;5035011;28;20046;-40
2023/01/07 06:45:49;;;;;;;19.10;15.23;;;9.60;99.90;;;;;;5017131;28;20050;-39
2023/01/07 06:48:15;;;;;;;18.40;14.32;;;9.70;99.90;;;;;;5016607;28;20053;-41
2023/01/07 06:50:41;;;;;;;18.50;15.10;;;9.70;99.90;;;;;;5035098;28;20046;-38
2023/01/07 06:53:06;;;;;;;16.88;14.13;;;9.70;99.90;;;;;;5001524;28;20042;-38
2023/01/07 06:55:32;;;;;;;17.33;13.50;;;9.70;99.90;;;;;;5034439;28;20041;-38
2023/01/07 06:57:58;;;;;;;18.10;13.60;;;9.80;99.90;;;;;;5034657;28;20128;-37
2023/01/07 07:00:24;;;;;;;18.40;13.80;;;9.80;99.90;;;;;;5034349;28;20045;-39
2023/01/07 07:02:49;;;;;;;13.90;12.40;;;9.80;99.90;;;;;;5016292;28;20415;-37
2023/01/07 07:05:15;;;;;;;15.32;12.23;;;9.80;99.90;;;;;;5034342;28;20053;-38
2023/01/07 07:07:41;;;;;;;15.73;11.98;;;9.90;99.90;;;;;;5016626;28;20175;-40
2023/01/07 07:10:08;;;;;;;18.42;12.45;;;9.90;99.90;;;;;;5034177;28;20395;-40
2023/01/07 07:12:35;;;;;;;17.42;10.82;;;9.90;99.90;;;;;;5034119;28;20095;-40
2023/01/07 07:15:01;;;;;;;15.38;11.95;;;10.00;99.90;;;;;;5016444;28;20055;-38
2023/01/07 07:17:26;;;;;;;12.85;10.93;;;9.90;99.90;;;;;;5016446;28;20124;-39
2023/01/07 07:19:52;;;;;;;14.68;12.98;;;9.90;99.90;;;;;;5033977;28;20041;-40
2023/01/07 07:22:18;;;;;;;15.20;11.45;;;10.00;99.90;;;;;;5000568;28;20089;-40
2023/01/07 07:24:43;;;;;;;13.10;10.73;;;10.00;99.90;;;;;;5033994;28;20471;-38
2023/01/07 07:27:09;;;;;;;12.48;10.15;;;10.00;99.90;;;;;;5016340;28;20037;-39
2023/01/07 07:29:35;;;;;;;13.75;10.85;;;9.90;99.90;;;;;;5033969;28;20163;-38
2023/01/07 07:32:01;;;;;;;14.57;11.60;;;9.90;99.90;;;;;;5034726;28;20046;-37
2023/01/07 07:34:26;;;;;;;14.75;11.80;;;9.90;99.90;;;;;;5034128;28;20045;-40
2023/01/07 07:36:52;;;;;;;16.65;10.95;;;9.90;99.90;;;;;;5000922;28;20045;-40
2023/01/07 07:39:17;;;;;;;14.85;10.15;;;9.90;99.90;;;;;;5034251;28;20089;-37
2023/01/07 07:41:43;;;;;;;11.43;9.82;;;9.90;99.90;;;;;;5034557;28;20049;-38
2023/01/07 07:44:09;;;;;;;13.10;10.70;;;9.80;99.90;;;;;;5034563;28;20045;-37
2023/01/07 07:46:35;;;;;;;14.02;10.88;;;9.80;99.90;;;;;;5016114;28;20507;-37
2023/01/07 07:49:01;;;;;;;13.02;11.57;;;9.80;99.90;;;;;;5033352;28;20659;-39
2023/01/07 07:51:27;;;;;;;14.73;10.93;;;9.80;99.90;;;;;;5033150;28;20128;-38
2023/01/07 07:53:52;;;;;;;14.73;11.88;;;9.70;99.90;;;;;;5015693;28;20377;-36
2023/01/07 07:56:18;;;;;;;12.95;9.75;;;9.70;99.90;;;;;;5015977;28;20049;-37
2023/01/07 07:58:44;;;;;;;14.45;10.18;;;9.80;99.90;;;;;;5033575;28;20149;-34
2023/01/07 08:01:10;;;;;;;12.38;10.05;;;9.80;99.90;;;;;;4999300;28;20463;-38
2023/01/07 08:03:36;;;;;;;10.52;9.18;;;9.80;99.90;;;;;;5016937;28;20045;-36
2023/01/07 08:06:03;;;;;;;14.05;9.60;;;9.80;99.90;;;;;;5033455;28;20041;-38
2023/01/07 08:08:29;;;;;;;16.45;9.27;;;9.80;99.90;;;;;;5033693;28;20072;-38
2023/01/07 08:10:55;;;;;;;9.95;8.95;;;9.80;99.90;;;;;;5015895;28;20495;-34
2023/01/07 08:13:21;;;;;;;10.05;8.75;;;9.80;99.90;;;;;;5015593;28;20045;-34
2023/01/07 08:15:47;;;;;;;11.95;9.25;;;9.80;99.90;;;;;;5016639;28;20046;-35
2023/01/07 08:18:13;;;;;;;12.35;9.30;;;9.80;99.90;;;;;;5033575;28;20175;-35
2023/01/07 08:20:39;;;;;;;14.20;8.55;;;9.70;99.90;;;;;;5033141;28;20046;-38
2023/01/07 08:23:06;;;;;;;10.75;8.10;;;9.70;99.90;;;;;;5033156;28;20051;-36
2023/01/07 08:25:33;;;;;;;12.73;7.90;;;9.60;99.90;;;;;;5033457;28;20041;-35
2023/01/07 08:28:00;;;;;;;12.52;8.82;;;9.70;99.90;;;;;;5019562;28;20407;-36
2023/01/07 08:30:27;;;;;;;9.02;7.32;;;9.70;99.90;;;;;;5033190;28;20083;-36
2023/01/07 08:32:53;;;;;;;11.00;8.05;;;9.60;99.90;;;;;;5033796;28;20124;-36
2023/01/07 08:35:19;;;;;;;15.60;7.70;;;9.70;99.90;;;;;;5032123;28;20041;-36
2023/01/07 08:37:44;;;;;;;11.40;6.95;;;9.60;99.90;;;;;;5000060;28;20080;-34
2023/01/07 08:40:11;;;;;;;8.15;6.75;;;9.60;99.90;;;;;;5016206;28;20046;-34
2023/01/07 08:42:37;;;;;;;14.15;7.93;;;9.60;99.90;;;;;;5032206;28;20058;-36
2023/01/07 08:45:04;;;;;;;12.38;7.88;;;9.60;99.90;;;;;;5033106;28;20049;-37
2023/01/07 08:47:29;;;;;;;14.10;9.18;;;9.70;99.90;;;;;;5033061;28;20069;-35
2023/01/07 08:49:56;;;;;;;15.15;10.30;;;9.70;99.90;;;;;;5033066;28;20480;-36
2023/01/07 08:52:22;;;;;;;10.93;9.25;;;9.80;99.90;;;;;;5033024;28;20051;-34
2023/01/07 08:54:48;;;;;;;13.77;9.80;;;9.80;99.90;;;;;;5032983;28;20457;-35
2023/01/07 08:57:15;;;;;;;13.55;7.70;;;9.80;99.90;;;;;;5031983;28;20391;-34
2023/01/07 08:59:42;;;;;;;7.97;6.82;;;9.80;99.90;;;;;;5031907;28;20050;-35
2023/01/07 09:02:16;;;;;;;8.57;6.38;;;9.80;99.90;;;;;;5032329;28;20053;-34
2023/01/07 09:04:42;;;;;;;10.35;6.25;;;9.80;99.90;;;;;;5035937;28;20489;-34
2023/01/07 09:07:09;;;;;;;9.50;5.40;;;9.80;99.90;;;;;;5036401;28;20087;-34
2023/01/07 09:09:35;;;;;;;8.98;5.53;;;9.80;99.90;;;;;;5036397;28;20094;-34
2023/01/07 09:12:01;;;;;;;8.98;5.28;;;9.70;99.90;;;;;;5035132;28;20071;-35
2023/01/07 09:14:27;;;;;;;8.10;5.43;;;9.70;99.90;;;;;;5035135;28;20057;-34
2023/01/07 09:16:53;;;;;;;6.80;4.82;;;9.70;99.90;;;;;;5037058;28;20175;-35
2023/01/07 09:19:19;;;;;;;7.22;4.50;;;9.70;99.90;;;;;;5035141;28;20372;-35
2023/01/07 09:21:44;;;;;;;8.93;5.38;;;9.70;99.90;;;;;;5035937;28;20045;-35
2023/01/07 09:24:10;;;;;;;7.32;4.32;;;9.70;99.90;;;;;;5034874;28;20434;-34
2023/01/07 09:26:36;;;;;;;6.25;4.35;;;9.70;99.90;;;;;;5036077;28;20049;-34
2023/01/07 09:29:01;;;;;;;5.60;4.70;;;9.60;91.90;;;;;;5035768;28;20057;-33
2023/01/07 09:31:27;;;;;;;5.95;4.25;;;9.60;99.90;;;;;;5018404;28;20487;-35
2023/01/07 09:33:53;;;;;;;8.18;5.30;;;9.60;99.90;;;;;;5002150;28;20064;-33
2023/01/07 09:36:19;;;;;;;7.22;4.72;;;9.60;99.90;;;;;;5018142;28;20132;-34
2023/01/07 09:38:44;;;;;;;9.38;4.68;;;9.50;99.90;;;;;;5035821;28;20084;-34
2023/01/07 09:41:20;;;;;;;8.15;4.68;;;9.50;99.90;;;;;;5035733;28;20442;-34
2023/01/07 09:43:53;;;;;;;8.90;4.35;;;9.50;99.90;;;;;;5036117;28;20492;-34
2023/01/07 09:46:18;;;;;;;5.30;3.70;;;9.50;99.90;;;;;;5036399;28;20060;-34
2023/01/07 09:48:48;;;;;;;6.80;4.60;;;9.50;84.90;;;;;;5018341;28;20041;-33
2023/01/07 09:51:27;;;;;;;7.10;5.13;;;9.60;99.90;;;;;;5035685;28;20040;-34
2023/01/07 09:53:56;;;;;;;10.15;4.70;;;9.60;99.90;;;;;;5002701;28;20128;-34
2023/01/07 09:56:27;;;;;;;7.30;4.25;;;9.60;1.00;;;;;;5035597;28;20114;-34
2023/01/07 09:58:55;;;;;;;5.82;3.97;;;9.60;1.00;;;;;;5018444;28;20053;-34
2023/01/07 10:01:30;;;;;;;4.07;3.33;;;9.60;99.90;;;;;;5018038;28;20488;-34
2023/01/07 10:04:33;;;;;;;5.20;3.35;;;9.60;1.00;;;;;;5035417;28;20079;-35
2023/01/07 10:07:22;;;;;;;6.13;3.78;;;9.70;1.00;;;;;;5018225;28;20056;-33
2023/01/07 10:10:19;;;;;;;7.60;4.00;;;9.70;98.60;;;;;;5035285;28;20073;-34
2023/01/07 10:13:10;;;;;;;9.85;4.00;;;9.80;1.00;;;;;;5035307;28;20046;-34
2023/01/07 10:15:56;;;;;;;8.13;3.38;;;9.80;1.00;;;;;;5035679;28;20079;-34
2023/01/07 10:18:43;;;;;;;6.05;3.42;;;9.80;99.90;;;;;;5036069;28;20063;-35
2023/01/07 10:21:24;;;;;;;5.40;3.13;;;9.80;1.00;;;;;;5017462;28;20054;-34
2023/01/07 10:24:04;;;;;;;4.53;3.28;;;9.90;1.00;;;;;;5035063;28;20056;-33
2023/01/07 10:26:34;;;;;;;5.38;2.70;;;9.90;99.90;;;;;;5035604;28;20365;-34
2023/01/07 10:29:20;;;;;;;5.50;3.17;;;9.90;99.90;;;;;;5035264;28;20061;-34
2023/01/07 10:31:48;;;;;;;5.25;2.78;;;9.90;99.90;;;;;;5003578;28;20057;-34
2023/01/07 10:34:23;;;;;;;3.65;2.47;;;9.90;99.90;;;;;;5035352;28;20054;-33
2023/01/07 10:37:02;;;;;;;7.50;3.17;;;9.90;99.90;;;;;;5035213;28;20244;-33
2023/01/07 10:39:51;;;;;;;5.40;2.70;;;10.00;99.90;;;;;;5034645;28;20037;-34
2023/01/07 10:42:30;;;;;;;8.82;4.75;;;10.00;1.00;;;;;;5017575;28;20060;-33
2023/01/07 10:45:26;;;;;;;5.50;2.70;;;10.00;99.90;;;;;;5035198;28;20052;-34
2023/01/07 10:48:23;;;;;;;4.30;2.17;;;10.00;99.90;;;;;;5035236;28;20080;-33
2023/01/07 10:51:24;;;;;;;5.28;2.70;;;10.00;99.90;;;;;;5034916;28;20044;-33
2023/01/07 10:54:19;;;;;;;3.22;2.08;;;10.10;1.00;;;;;;4954070;29;20086;-35
2023/01/07 10:56:56;;;;;;;4.25;2.42;;;10.20;1.00;;;;;;5017203;28;20049;-34
2023/01/07 10:59:24;;;;;;;3.97;2.60;;;10.20;1.00;;;;;;5017180;28;20099;-34
2023/01/07 11:01:53;;;;;;;13.60;3.38;;;10.20;99.90;;;;;;5034295;28;20053;-34
2023/01/07 11:04:20;;;;;;;5.65;2.15;;;10.30;99.90;;;;;;5034177;28;20045;-35
2023/01/07 11:06:57;;;;;;;5.70;2.50;;;10.30;1.00;;;;;;5034131;28;20103;-33
2023/01/07 11:09:28;;;;;;;6.55;2.70;;;10.40;99.90;;;;;;5034223;28;20468;-33
2023/01/07 11:11:56;;;;;;;3.67;2.63;;;10.40;1.00;;;;;;5016955;28;20046;-33
2023/01/07 11:14:27;;;;;;;4.93;2.30;;;10.50;99.90;;;;;;5034154;28;20395;-34
2023/01/07 11:17:07;;;;;;;3.90;2.60;;;10.50;99.90;;;;;;5034911;28;20056;-35
2023/01/07 11:19:48;;;;;;;3.85;1.98;;;10.50;99.90;;;;;;5017419;28;20484;-34
2023/01/07 11:22:25;;;;;;;2.63;2.15;;;10.50;99.90;;;;;;5034911;28;20054;-35
2023/01/07 11:24:55;;;;;;;5.78;1.92;;;10.50;1.00;;;;;;5033950;28;20052;-33
2023/01/07 11:27:33;;;;;;;4.22;2.95;;;10.60;99.90;;;;;;5032931;28;20048;-34
2023/01/07 11:30:18;;;;;;;2.78;1.88;;;10.70;99.90;;;;;;5033831;28;20538;-34
2023/01/07 11:32:57;;;;;;;4.28;2.30;;;10.90;99.90;;;;;;5033931;28;20045;-34
2023/01/07 11:35:27;;;;;;;5.43;3.75;;;11.00;1.00;;;;;;5033851;28;20049;-33
2023/01/07 11:37:52;;;;;;;3.67;2.47;;;11.00;99.90;;;;;;5033745;28;20041;-33
2023/01/07 11:40:28;;;;;;;5.32;4.38;;;11.00;99.90;;;;;;5016108;28;20535;-33
2023/01/07 11:43:19;;;;;;;5.82;5.30;;;11.00;99.90;;;;;;5016316;28;20483;-33
2023/01/07 11:45:54;;;;;;;6.75;6.05;;;11.00;99.90;;;;;;5034295;28;20049;-33
2023/01/07 11:48:32;;;;;;;4.57;3.65;;;11.00;99.90;;;;;;5033644;28;20045;-34
2023/01/07 11:51:00;;;;;;;3.60;1.48;;;10.90;1.00;;;;;;5033834;28;20370;-33
2023/01/07 11:53:36;;;;;;;4.53;1.75;;;10.80;99.90;;;;;;5034368;28;20068;-34
2023/01/07 11:56:20;;;;;;;3.75;2.50;;;10.80;1.00;;;;;;5033625;28;20045;-33
2023/01/07 11:58:51;;;;;;;8.15;3.75;;;10.80;1.00;;;;;;5033602;28;20128;-37
2023/01/07 12:01:20;;;;;;;2.67;2.13;;;10.80;1.00;;;;;;5034290;28;20045;-33
2023/01/07 12:03:52;;;;;;;3.75;1.80;;;10.70;99.90;;;;;;4999736;28;20084;-33
2023/01/07 12:06:22;;;;;;;2.53;2.25;;;10.80;87.10;;;;;;5015841;28;20041;-34
2023/01/07 12:09:03;;;;;;;2.60;2.33;;;10.80;1.00;;;;;;5033112;28;20446;-33
2023/01/07 12:11:38;;;;;;;8.57;6.38;;;10.80;1.00;;;;;;5016098;28;20507;-35
2023/01/07 12:14:16;;;;;;;5.70;4.82;;;10.70;99.90;;;;;;5033397;28;20081;-36
2023/01/07 12:16:46;;;;;;;2.88;1.58;;;10.80;1.00;;;;;;5033436;28;20080;-35
2023/01/07 12:19:17;;;;;;;2.47;1.27;;;10.70;1.00;;;;;;5015888;28;20103;-35
2023/01/07 12:22:11;;;;;;;2.90;1.50;;;10.70;89.40;;;;;;5034204;28;20045;-35
2023/01/07 12:24:40;;;;;;;2.97;1.10;;;10.80;1.00;;;;;;5033305;28;20072;-35
2023/01/07 12:27:41;;;;;;;2.30;1.00;;;10.80;1.00;;;;;;5033238;28;20133;-36
2023/01/07 12:30:33;;;;;;;3.08;1.35;;;10.80;1.00;;;;;;5033826;28;20050;-35
2023/01/07 12:32:59;;;;;;;2.00;1.30;;;10.80;1.00;;;;;;5033227;28;20554;-34
2023/01/07 12:35:38;;;;;;;2.88;1.13;;;10.90;99.90;;;;;;5033175;28;20049;-33
2023/01/07 12:38:15;;;;;;;14.25;12.27;;;10.90;99.90;;;;;;5035919;28;20076;-33
2023/01/07 12:41:01;;;;;;;4.28;3.88;;;10.80;1.00;;;;;;5036959;28;20468;-33
2023/01/07 12:43:27;;;;;;;3.90;0.98;;;10.90;99.90;;;;;;5003843;28;20107;-32
2023/01/07 12:46:03;;;;;;;2.78;0.95;;;11.00;99.90;;;;;;5036961;28;20045;-33
2023/01/07 12:48:37;;;;;;;3.15;0.93;;;11.00;1.00;;;;;;5036894;28;20045;-33
2023/01/07 12:51:11;;;;;;;1.95;0.70;;;11.10;1.00;;;;;;5036757;28;20080;-33
2023/01/07 12:53:46;;;;;;;2.95;0.90;;;11.10;99.90;;;;;;5019802;28;20133;-33
2023/01/07 12:56:21;;;;;;;2.17;0.82;;;11.20;1.00;;;;;;5036773;28;20045;-32
2023/01/07 12:58:58;;;;;;;4.35;0.98;;;11.20;1.00;;;;;;5036758;28;20048;-36
2023/01/07 13:01:49;;;;;;;2.33;1.20;;;11.20;96.50;;;;;;5036664;28;20116;-33